Time;durP1;ratioP1;P1;durP2;ratioP2;P2;SDS_P1;SDS_P2;PMS_P1;PMS_P2;Temp;Humidity;BMP_temperature;BMP_pressure;BME280_temperature;BME280_humidity;BME280_pressure;Samples;Min_cycle;Max_cycle;Signal;HPM_P1;HPM_P2
2022/08/25 00:00:26;;;;;;;4.55;4.15;;;;;;;22.02;67.46;95759.13;4953761;28;20245;-88
2022/08/25 00:02:54;;;;;;;3.90;3.60;;;;;;;22.12;66.95;95761.09;4954466;28;20228;-88
2022/08/25 00:05:27;;;;;;;4.25;3.90;;;;;;;22.13;67.07;95765.31;4955187;28;20231;-87
2022/08/25 00:07:58;;;;;;;6.05;3.90;;;;;;;22.07;67.07;95745.28;4954901;28;20229;-87
2022/08/25 00:10:32;;;;;;;4.10;3.80;;;;;;;21.96;67.72;95752.19;4953921;28;20260;-89
2022/08/25 00:13:00;;;;;;;4.00;3.70;;;;;;;21.89;68.32;95743.75;4954623;28;20213;-88
2022/08/25 00:15:28;;;;;;;5.00;4.07;;;;;;;21.83;67.79;95745.50;4954775;28;20204;-91
2022/08/25 00:17:59;;;;;;;3.95;3.65;;;;;;;21.83;68.18;95745.50;4954618;28;20193;-88
2022/08/25 00:20:32;;;;;;;4.32;3.92;;;;;;;21.84;68.19;95739.22;4958075;28;20362;-88
2022/08/25 00:23:02;;;;;;;4.32;3.95;;;;;;;21.84;68.18;95741.84;4955086;28;20312;-88
2022/08/25 00:25:29;;;;;;;4.28;3.63;;;;;;;21.86;68.17;95742.41;4954870;28;20221;-89
2022/08/25 00:28:08;;;;;;;4.60;4.10;;;;;;;21.86;68.33;95744.22;4954345;28;20289;-86
2022/08/25 00:30:36;;;;;;;3.85;3.55;;;;;;;21.84;68.28;95744.47;4953827;28;20224;-89
2022/08/25 00:33:03;;;;;;;4.78;3.90;;;;;;;21.80;68.68;95742.56;4954384;28;20952;-88
2022/08/25 00:35:32;;;;;;;4.00;3.70;;;;;;;21.76;68.48;95749.31;4954941;28;20252;-86
2022/08/25 00:38:00;;;;;;;3.90;3.60;;;;;;;21.70;69.03;95738.00;4954140;28;20729;-87
2022/08/25 00:40:30;;;;;;;4.07;3.78;;;;;;;21.65;69.28;95743.16;4945595;28;20264;-88
2022/08/25 00:43:00;;;;;;;4.10;3.70;;;;;;;21.45;69.56;95746.28;4954181;28;20239;-87
2022/08/25 00:45:26;;;;;;;4.00;3.63;;;;;;;21.39;69.90;95742.00;4954044;28;20232;-90
2022/08/25 00:47:58;;;;;;;3.90;3.60;;;;;;;21.35;70.42;95738.31;4953840;28;20210;-86
2022/08/25 00:50:27;;;;;;;4.80;4.47;;;;;;;21.28;70.60;95735.84;4952747;28;20748;-87
2022/08/25 00:52:59;;;;;;;4.35;3.95;;;;;;;21.11;71.59;95735.03;4954010;28;20644;-87
2022/08/25 00:55:30;;;;;;;4.78;4.38;;;;;;;21.00;72.47;95736.69;4953661;28;20205;-90
2022/08/25 00:58:02;;;;;;;4.72;4.32;;;;;;;21.09;71.56;95729.22;4953975;28;20568;-89
2022/08/25 01:00:32;;;;;;;5.18;4.40;;;;;;;21.00;71.81;95725.41;4952644;28;20735;-89
2022/08/25 01:02:58;;;;;;;4.80;4.32;;;;;;;20.96;72.23;95719.09;4954899;28;20232;-89
2022/08/25 01:05:27;;;;;;;4.75;4.35;;;;;;;20.95;72.75;95718.28;4954697;29;20217;-89
2022/08/25 01:07:54;;;;;;;4.43;4.13;;;;;;;20.90;72.82;95720.03;4953993;28;20208;-88
2022/08/25 01:10:22;;;;;;;4.93;4.53;;;;;;;20.87;73.06;95721.28;4952024;28;20229;-87
2022/08/25 01:12:53;;;;;;;5.25;4.75;;;;;;;20.80;73.37;95723.25;4954246;28;20217;-87
2022/08/25 01:15:20;;;;;;;4.68;4.22;;;;;;;20.78;72.83;95727.16;4953684;28;20192;-89
2022/08/25 01:17:49;;;;;;;4.95;4.53;;;;;;;20.64;73.32;95721.41;4954204;28;20197;-87
2022/08/25 01:20:18;;;;;;;5.05;4.57;;;;;;;20.63;74.29;95725.06;4952378;28;21208;-88
2022/08/25 01:22:46;;;;;;;4.88;4.32;;;;;;;20.68;74.09;95725.94;4953316;28;20591;-88
2022/08/25 01:25:25;;;;;;;4.40;4.00;;;;;;;20.73;73.69;95722.63;4953178;28;20201;-88
2022/08/25 01:27:51;;;;;;;4.60;4.20;;;;;;;20.78;73.44;95724.56;4947933;29;20196;-88
2022/08/25 01:30:18;;;;;;;4.65;4.25;;;;;;;20.87;72.79;95726.53;4952277;28;20228;-88
2022/08/25 01:32:44;;;;;;;4.55;4.15;;;;;;;20.88;72.69;95722.88;4952932;28;20267;-86
2022/08/25 01:35:11;;;;;;;4.97;4.57;;;;;;;20.87;73.24;95723.13;4953341;28;20576;-88
2022/08/25 01:37:38;;;;;;;4.78;4.32;;;;;;;20.92;72.66;95720.59;4952825;28;20204;-86
2022/08/25 01:40:07;;;;;;;4.45;4.13;;;;;;;20.98;72.73;95722.22;4951949;28;20728;-88
2022/08/25 01:42:57;;;;;;;4.63;4.22;;;;;;;21.05;71.88;95722.88;4952787;28;20279;-87
2022/08/25 01:45:24;;;;;;;4.65;4.25;;;;;;;21.04;71.18;95722.09;4952666;28;20201;-87
2022/08/25 01:47:50;;;;;;;5.68;4.25;;;;;;;21.00;71.04;95717.56;4952514;28;20267;-88
2022/08/25 01:50:17;;;;;;;4.55;4.15;;;;;;;20.95;71.29;95714.88;4952093;28;20228;-86
2022/08/25 01:52:49;;;;;;;4.30;3.90;;;;;;;20.82;71.63;95717.78;4953803;28;20747;-86
2022/08/25 01:55:18;;;;;;;5.07;4.60;;;;;;;20.80;71.49;95712.00;4952909;28;20731;-86
2022/08/25 01:57:45;;;;;;;4.43;4.03;;;;;;;20.65;72.69;95712.53;4952319;28;20193;-86
2022/08/25 02:00:13;;;;;;;4.70;4.30;;;;;;;20.75;71.75;95714.56;4951688;28;20293;-85
2022/08/25 02:02:41;;;;;;;4.45;4.05;;;;;;;20.83;71.58;95714.94;4951405;28;20308;-87
2022/08/25 02:05:09;;;;;;;4.60;4.20;;;;;;;20.78;72.09;95711.47;4952669;28;20208;-85
2022/08/25 02:07:37;;;;;;;4.90;4.50;;;;;;;20.78;71.57;95714.09;4953058;29;20219;-87
2022/08/25 02:10:05;;;;;;;5.63;5.00;;;;;;;20.64;72.27;95714.38;4952166;28;20236;-90
2022/08/25 02:12:35;;;;;;;5.95;5.35;;;;;;;20.58;72.36;95714.53;4952998;28;20233;-87
2022/08/25 02:15:02;;;;;;;5.30;4.85;;;;;;;20.52;72.52;95712.84;4952894;28;20211;-88
2022/08/25 02:17:29;;;;;;;5.43;4.93;;;;;;;20.18;74.86;95719.78;4952691;28;20202;-85
2022/08/25 02:19:56;;;;;;;6.85;5.18;;;;;;;20.13;75.67;95717.88;4952826;28;20664;-86
2022/08/25 02:22:23;;;;;;;6.20;5.63;;;;;;;20.10;76.79;95715.72;4952530;28;20251;-87
2022/08/25 02:24:50;;;;;;;7.03;6.43;;;;;;;19.95;78.46;95718.84;4953522;28;20197;-86
2022/08/25 02:27:16;;;;;;;6.70;6.10;;;;;;;19.88;79.45;95719.97;4953266;28;20228;-84
2022/08/25 02:29:44;;;;;;;6.68;6.03;;;;;;;19.92;79.45;95710.66;4952283;28;20232;-87
2022/08/25 02:32:10;;;;;;;7.05;6.45;;;;;;;20.01;79.49;95709.28;4952777;28;20293;-87
2022/08/25 02:34:38;;;;;;;7.95;7.18;;;;;;;19.95;80.40;95716.22;4952819;28;20256;-86
2022/08/25 02:37:05;;;;;;;7.82;7.13;;;;;;;19.90;80.80;95710.09;4952506;28;20205;-86
2022/08/25 02:39:31;;;;;;;8.20;7.47;;;;;;;19.81;81.66;95709.69;4951986;28;20643;-88
2022/08/25 02:41:58;;;;;;;8.15;7.32;;;;;;;19.83;82.18;95722.47;4950995;28;20309;-86
2022/08/25 02:44:25;;;;;;;7.80;7.10;;;;;;;19.84;81.69;95714.41;4953019;28;20201;-89
2022/08/25 02:46:53;;;;;;;7.82;7.13;;;;;;;19.75;82.54;95707.97;4952734;28;20220;-86
2022/08/25 02:49:19;;;;;;;7.82;7.13;;;;;;;19.77;82.39;95712.97;4952071;28;20232;-87
2022/08/25 02:51:45;;;;;;;7.43;6.72;;;;;;;19.79;82.54;95710.94;4952310;28;20221;-88
2022/08/25 02:54:12;;;;;;;8.00;7.30;;;;;;;19.91;81.63;95701.22;4952505;28;20558;-86
2022/08/25 02:56:39;;;;;;;7.78;7.07;;;;;;;19.94;81.13;95706.00;4952392;28;20229;-86
2022/08/25 02:59:06;;;;;;;7.57;6.88;;;;;;;19.87;81.83;95697.47;4952266;28;20826;-87
2022/08/25 03:01:32;;;;;;;7.47;6.63;;;;;;;19.79;82.72;95703.09;4952048;28;20304;-88
2022/08/25 03:04:01;;;;;;;7.88;7.13;;;;;;;19.66;83.30;95697.06;4952352;28;20680;-88
2022/08/25 03:06:28;;;;;;;8.00;7.30;;;;;;;19.69;83.16;95700.25;4952482;28;20311;-87
2022/08/25 03:08:55;;;;;;;7.45;6.75;;;;;;;19.76;82.65;95699.13;4946084;28;20225;-86
2022/08/25 03:11:21;;;;;;;7.78;7.07;;;;;;;19.74;82.90;95702.97;4952514;28;21393;-89
2022/08/25 03:13:49;;;;;;;6.40;5.88;;;;;;;19.79;82.47;95697.88;4956433;28;20208;-86
2022/08/25 03:16:16;;;;;;;7.45;6.75;;;;;;;19.96;81.27;95702.13;4956107;28;20248;-89
2022/08/25 03:18:43;;;;;;;7.35;6.57;;;;;;;20.09;80.78;95697.66;4955498;28;20572;-88
2022/08/25 03:21:12;;;;;;;8.40;7.50;;;;;;;20.06;81.03;95701.50;4955428;28;20197;-88
2022/08/25 03:23:39;;;;;;;8.40;7.68;;;;;;;19.83;82.59;95693.75;4955622;28;20227;-87
2022/08/25 03:28:51;;;;;;;8.23;7.53;;;;;;;19.65;83.06;95692.06;4955359;28;20231;-87
2022/08/25 03:31:17;;;;;;;7.97;7.18;;;;;;;19.78;82.39;95698.88;4955266;28;20244;-88
2022/08/25 03:33:44;;;;;;;7.78;7.07;;;;;;;19.83;82.15;95694.53;4956006;28;20196;-88
2022/08/25 03:36:12;;;;;;;8.48;7.68;;;;;;;19.81;82.80;95691.38;4955768;28;20196;-87
2022/08/25 03:38:41;;;;;;;8.35;7.55;;;;;;;19.66;83.46;95688.44;4955472;28;20205;-86
2022/08/25 03:41:13;;;;;;;8.25;7.55;;;;;;;19.63;83.93;95689.69;4956060;28;20208;-88
2022/08/25 03:43:40;;;;;;;8.68;7.88;;;;;;;19.55;84.56;95690.06;4955828;28;20260;-86
2022/08/25 03:46:06;;;;;;;8.43;7.63;;;;;;;19.56;84.76;95689.03;4945395;28;20613;-90
2022/08/25 03:48:33;;;;;;;11.32;8.30;;;;;;;19.58;84.80;95688.81;4943944;28;20204;-87
2022/08/25 03:50:59;;;;;;;8.90;8.10;;;;;;;19.61;84.14;95688.38;4955258;28;20208;-87
2022/08/25 03:53:27;;;;;;;9.00;7.13;;;;;;;19.73;83.73;95690.94;4955805;28;20201;-86
2022/08/25 03:55:54;;;;;;;7.68;6.93;;;;;;;19.90;82.37;95681.34;4956204;28;20613;-88
2022/08/25 03:58:20;;;;;;;9.10;8.20;;;;;;;19.82;83.02;95684.34;4955947;28;20206;-88
2022/08/25 04:00:47;;;;;;;8.95;8.15;;;;;;;19.76;83.40;95687.88;4954224;28;20220;-87
2022/08/25 04:03:13;;;;;;;8.70;7.90;;;;;;;19.57;84.75;95682.78;4955536;28;20740;-89
2022/08/25 04:05:39;;;;;;;8.52;7.72;;;;;;;19.57;84.41;95682.78;4956053;28;20220;-89
2022/08/25 04:08:06;;;;;;;8.95;8.07;;;;;;;19.51;85.22;95682.91;4956155;28;20229;-88
2022/08/25 04:10:34;;;;;;;11.52;8.90;;;;;;;19.44;84.86;95688.22;4954180;28;20320;-88
2022/08/25 04:13:01;;;;;;;9.40;8.50;;;;;;;19.38;86.42;95688.34;4955320;28;20220;-86
2022/08/25 04:15:28;;;;;;;9.63;8.77;;;;;;;19.43;85.58;95694.50;4947009;28;20284;-86
2022/08/25 04:17:54;;;;;;;9.05;8.13;;;;;;;19.41;85.52;95688.69;4954067;29;20233;-88
2022/08/25 04:20:21;;;;;;;9.18;8.38;;;;;;;19.35;85.69;95694.03;4955299;28;20287;-87
2022/08/25 04:22:47;;;;;;;10.52;8.75;;;;;;;19.32;86.44;95698.69;4955372;28;20220;-89
2022/08/25 04:25:13;;;;;;;9.95;8.35;;;;;;;19.44;85.81;95697.88;4956825;28;20208;-87
2022/08/25 04:27:42;;;;;;;10.93;8.00;;;;;;;19.52;85.66;95694.94;4956329;28;20275;-90
2022/08/25 04:30:09;;;;;;;9.63;8.73;;;;;;;19.48;85.59;95696.41;4955631;28;20236;-90
2022/08/25 04:32:36;;;;;;;9.38;8.40;;;;;;;19.64;83.77;95693.09;4945029;28;20292;-91
2022/08/25 04:35:04;;;;;;;8.23;7.50;;;;;;;19.63;83.68;95697.53;4955851;28;20201;-89
2022/08/25 04:37:30;;;;;;;8.05;7.35;;;;;;;19.79;82.89;95695.25;4955792;28;20256;-91
2022/08/25 04:39:56;;;;;;;8.50;7.80;;;;;;;19.83;82.40;95696.34;4954514;28;20259;-89
2022/08/25 04:42:25;;;;;;;9.02;7.70;;;;;;;19.77;82.70;95692.88;4954462;28;20220;-89
2022/08/25 04:44:53;;;;;;;9.60;7.75;;;;;;;19.74;82.67;95692.53;4954606;28;20205;-89
2022/08/25 04:47:19;;;;;;;8.43;7.57;;;;;;;19.82;82.63;95695.56;4955182;28;20229;-89
2022/08/25 04:49:46;;;;;;;9.05;8.15;;;;;;;19.76;83.06;95695.72;4954599;28;20664;-88
2022/08/25 04:52:13;;;;;;;9.48;8.57;;;;;;;19.70;83.96;95692.19;4954585;28;20324;-86
2022/08/25 04:54:39;;;;;;;10.02;8.77;;;;;;;19.69;84.23;95695.81;4955009;28;20209;-88
2022/08/25 04:57:06;;;;;;;10.00;9.10;;;;;;;19.75;84.20;95694.91;4955098;28;20605;-88
2022/08/25 04:59:32;;;;;;;9.82;8.82;;;;;;;19.85;83.72;95694.31;4954353;28;20236;-88
2022/08/25 05:02:01;;;;;;;9.55;8.63;;;;;;;19.98;82.68;95687.00;4954025;28;20236;-88
2022/08/25 05:04:28;;;;;;;10.13;9.23;;;;;;;19.96;83.24;95691.69;4955047;28;20212;-87
2022/08/25 05:06:55;;;;;;;10.38;9.45;;;;;;;20.10;82.43;95679.13;4955114;28;20220;-87
2022/08/25 05:09:21;;;;;;;10.65;8.85;;;;;;;20.09;82.33;95684.56;4955231;28;20264;-90
2022/08/25 05:11:48;;;;;;;9.35;8.55;;;;;;;20.08;82.45;95678.56;4954400;28;20231;-88
2022/08/25 05:14:17;;;;;;;10.05;9.15;;;;;;;20.10;82.51;95686.97;4954945;29;20204;-87
2022/08/25 05:16:43;;;;;;;10.30;8.43;;;;;;;20.04;82.68;95682.66;4954927;29;20236;-87
2022/08/25 05:19:11;;;;;;;9.65;8.75;;;;;;;20.11;82.75;95685.13;4953868;28;20233;-89
2022/08/25 05:21:38;;;;;;;10.50;9.55;;;;;;;20.17;82.61;95679.00;4954144;28;20224;-88
2022/08/25 05:24:06;;;;;;;10.30;8.98;;;;;;;20.25;82.21;95686.44;4954644;28;20213;-90
2022/08/25 05:26:35;;;;;;;10.68;9.63;;;;;;;20.27;81.77;95682.56;4953719;28;20204;-89
2022/08/25 05:29:03;;;;;;;9.75;8.75;;;;;;;20.34;81.60;95678.00;4953345;28;20228;-88
2022/08/25 05:31:31;;;;;;;10.25;9.00;;;;;;;20.35;82.27;95674.34;4953478;28;20259;-88
2022/08/25 05:33:58;;;;;;;9.40;8.50;;;;;;;20.38;81.76;95674.94;4953440;28;20201;-89
2022/08/25 05:36:29;;;;;;;12.13;8.80;;;;;;;20.36;82.70;95672.53;4953897;28;20212;-88
2022/08/25 05:38:56;;;;;;;9.85;8.95;;;;;;;20.47;82.07;95671.69;4953538;28;20316;-87
2022/08/25 05:41:27;;;;;;;10.40;9.38;;;;;;;20.54;81.23;95674.97;4953444;28;20667;-89
2022/08/25 05:43:54;;;;;;;10.30;9.27;;;;;;;20.67;80.50;95671.25;4953905;28;20688;-88
2022/08/25 05:46:21;;;;;;;12.07;10.43;;;;;;;20.79;79.55;95677.19;4953581;28;20196;-90
2022/08/25 05:48:48;;;;;;;10.02;8.95;;;;;;;20.73;80.49;95667.69;4953348;28;20308;-85
2022/08/25 05:51:16;;;;;;;10.38;9.45;;;;;;;20.66;80.10;95669.66;4953220;28;20201;-87
2022/08/25 05:53:45;;;;;;;13.52;12.23;;;;;;;20.64;80.86;95664.66;4954014;28;20297;-86
2022/08/25 05:56:13;;;;;;;15.43;10.93;;;;;;;20.79;79.98;95676.38;4954277;28;20212;-86
2022/08/25 05:58:42;;;;;;;10.30;9.30;;;;;;;20.80;79.89;95677.97;4953631;28;20255;-86
2022/08/25 06:03:53;;;;;;;9.82;8.93;;;;;;;21.03;78.25;95681.22;4953886;29;20236;-89
2022/08/25 06:06:21;;;;;;;10.90;9.73;;;;;;;21.10;77.55;95673.22;4953872;29;20209;-86
2022/08/25 06:08:49;;;;;;;12.30;9.60;;;;;;;21.08;77.61;95671.88;4953018;28;20767;-89
2022/08/25 06:11:46;;;;;;;10.05;9.05;;;;;;;21.03;78.04;95667.34;4953411;28;20255;-88
2022/08/25 06:17:01;;;;;;;11.80;9.35;;;;;;;21.13;78.06;95659.66;4952895;28;20208;-87
2022/08/25 06:19:41;;;;;;;10.90;9.23;;;;;;;21.18;76.30;95667.56;4952672;28;20232;-87
2022/08/25 06:22:08;;;;;;;9.73;8.85;;;;;;;21.21;75.69;95659.25;4952667;28;20228;-87
2022/08/25 06:24:45;;;;;;;8.88;8.07;;;;;;;21.31;75.84;95663.84;4953495;28;20214;-86
2022/08/25 06:27:21;;;;;;;9.63;8.73;;;;;;;21.34;75.25;95660.75;4953400;28;20219;-89
2022/08/25 06:30:04;;;;;;;9.57;8.57;;;;;;;21.34;75.45;95664.16;4952652;28;20236;-88
2022/08/25 06:32:35;;;;;;;10.00;8.93;;;;;;;21.46;74.46;95656.19;4953478;28;20275;-88
2022/08/25 06:35:07;;;;;;;13.15;8.90;;;;;;;21.55;73.70;95657.34;4953911;28;20201;-86
2022/08/25 06:37:36;;;;;;;9.50;8.52;;;;;;;21.59;72.88;95657.66;4953387;28;20205;-86
2022/08/25 06:40:09;;;;;;;8.80;8.00;;;;;;;21.53;72.94;95664.66;4952973;28;20232;-87
2022/08/25 06:42:37;;;;;;;15.55;14.02;;;;;;;21.65;72.54;95654.84;4954152;28;20225;-88
2022/08/25 06:45:13;;;;;;;10.13;9.20;;;;;;;21.64;71.97;95662.97;4953859;28;20212;-88
2022/08/25 06:47:43;;;;;;;10.13;9.20;;;;;;;21.60;72.23;95665.25;4957236;28;20224;-86
2022/08/25 06:50:10;;;;;;;12.02;10.93;;;;;;;21.75;71.47;95669.09;4957205;28;20315;-90
2022/08/25 06:52:44;;;;;;;8.65;7.85;;;;;;;21.87;70.76;95667.94;4958263;28;20221;-86
2022/08/25 06:55:26;;;;;;;8.95;8.15;;;;;;;22.01;69.33;95671.00;4957810;28;20211;-87
2022/08/25 06:58:02;;;;;;;8.02;7.22;;;;;;;22.09;69.33;95670.59;4956888;28;20614;-89
2022/08/25 07:00:40;;;;;;;8.43;7.63;;;;;;;22.16;68.46;95680.88;4955827;28;20244;-87
2022/08/25 07:03:13;;;;;;;8.77;7.88;;;;;;;22.28;68.19;95669.22;4956682;28;20251;-88
2022/08/25 07:05:41;;;;;;;7.82;6.88;;;;;;;22.42;68.49;95663.56;4956600;29;20299;-86
2022/08/25 07:08:16;;;;;;;7.95;7.22;;;;;;;22.46;68.41;95664.66;4956700;29;20225;-87
2022/08/25 07:10:54;;;;;;;8.65;7.85;;;;;;;22.42;68.14;95661.72;4955382;28;20232;-87
2022/08/25 07:13:24;;;;;;;10.65;8.35;;;;;;;22.43;68.04;95670.38;4956663;28;20228;-87
2022/08/25 07:16:00;;;;;;;8.48;7.78;;;;;;;22.63;67.79;95665.31;4956580;28;20216;-85
2022/08/25 07:18:31;;;;;;;7.63;6.55;;;;;;;22.89;67.73;95667.16;4953333;28;20267;-86
2022/08/25 07:21:00;;;;;;;8.35;7.40;;;;;;;23.05;66.45;95660.16;4956049;28;20295;-85
2022/08/25 07:23:34;;;;;;;10.40;7.47;;;;;;;23.15;65.83;95665.47;4956190;28;20315;-86
2022/08/25 07:26:22;;;;;;;7.97;7.25;;;;;;;23.32;65.46;95662.66;4956587;28;20216;-88
2022/08/25 07:29:01;;;;;;;;;;;;;;;;;;;;;
2022/08/25 07:31:41;;;;;;;10.65;7.65;;;;;;;23.57;64.71;95657.59;4957139;29;20224;-86
2022/08/25 07:37:03;;;;;;;7.32;6.18;;;;;;;23.90;62.49;95652.97;4956346;29;20223;-85
2022/08/25 07:39:55;;;;;;;6.45;5.85;;;;;;;23.84;62.16;95654.03;4955610;28;20315;-88
2022/08/25 07:42:25;;;;;;;6.97;6.38;;;;;;;23.75;62.84;95653.72;4955361;28;20264;-87
2022/08/25 07:45:00;;;;;;;6.32;5.82;;;;;;;23.86;63.27;95654.56;4956613;28;20205;-86
2022/08/25 07:47:32;;;;;;;6.93;6.22;;;;;;;24.05;62.85;95664.31;4956411;28;20710;-89
2022/08/25 07:50:04;;;;;;;8.38;6.25;;;;;;;24.18;60.95;95654.38;4957575;28;20255;-86
2022/08/25 07:52:39;;;;;;;6.57;5.95;;;;;;;24.19;60.01;95653.31;4958078;28;20260;-86
2022/08/25 07:55:14;;;;;;;6.63;6.05;;;;;;;24.26;60.05;95653.88;4956117;28;20235;-88
2022/08/25 07:57:47;;;;;;;7.05;6.40;;;;;;;24.42;60.99;95655.50;4955452;28;20290;-86
2022/08/25 08:00:28;;;;;;;6.72;6.13;;;;;;;24.60;60.65;95652.34;4954648;28;20236;-87
2022/08/25 08:03:03;;;;;;;8.52;7.28;;;;;;;24.73;60.04;95656.31;4954862;28;20311;-87
2022/08/25 08:05:39;;;;;;;17.60;7.78;;;;;;;24.76;60.89;95672.38;4956167;29;20223;-89
2022/08/25 08:08:12;;;;;;;18.92;16.77;;;;;;;24.95;59.99;95671.88;4955725;29;20228;-87
2022/08/25 08:10:45;;;;;;;8.23;7.20;;;;;;;25.15;58.23;95658.66;4946294;28;20656;-87
2022/08/25 08:13:14;;;;;;;8.52;7.18;;;;;;;25.12;57.64;95662.63;4955994;28;20228;-88
2022/08/25 08:15:42;;;;;;;7.13;6.43;;;;;;;25.02;59.23;95669.72;4955318;28;20233;-87
2022/08/25 08:18:10;;;;;;;7.43;6.72;;;;;;;25.09;57.58;95672.91;4955265;28;20220;-88
2022/08/25 08:20:39;;;;;;;7.28;6.57;;;;;;;25.22;57.39;95666.28;4954484;28;20790;-87
2022/08/25 08:23:05;;;;;;;6.72;5.90;;;;;;;25.17;57.31;95663.69;4955950;28;20601;-87
2022/08/25 08:25:34;;;;;;;6.63;6.13;;;;;;;25.17;57.94;95659.19;4955196;28;20204;-87
2022/08/25 08:28:01;;;;;;;7.78;6.30;;;;;;;25.29;58.07;95659.69;4955221;28;20229;-86
2022/08/25 08:30:32;;;;;;;6.43;5.82;;;;;;;25.45;57.16;95653.31;4954222;28;20284;-87
2022/08/25 08:32:59;;;;;;;6.90;6.30;;;;;;;25.50;56.89;95659.63;4955126;28;20319;-88
2022/08/25 08:35:26;;;;;;;7.10;6.47;;;;;;;25.46;56.78;95659.38;4954806;28;20211;-87
2022/08/25 08:37:55;;;;;;;6.57;6.07;;;;;;;25.68;56.53;95657.22;4954678;28;20205;-87
2022/08/25 08:40:23;;;;;;;6.47;5.88;;;;;;;25.69;56.67;95650.09;4953437;28;20236;-88
2022/08/25 08:43:02;;;;;;;6.57;5.97;;;;;;;25.79;57.28;95650.84;4954667;28;20224;-88
2022/08/25 08:45:45;;;;;;;7.50;5.80;;;;;;;26.11;56.12;95652.28;4954590;28;20759;-87
2022/08/25 08:48:41;;;;;;;6.57;5.93;;;;;;;26.31;55.37;95643.50;4954553;28;20225;-89
2022/08/25 08:51:23;;;;;;;6.85;6.20;;;;;;;26.39;55.04;95633.13;4950113;29;20235;-86
2022/08/25 08:54:03;;;;;;;9.13;6.32;;;;;;;26.46;54.61;95632.81;4954670;28;20204;-87
2022/08/25 08:56:37;;;;;;;5.95;5.32;;;;;;;26.54;53.69;95636.72;4955264;28;20220;-89
2022/08/25 08:59:18;;;;;;;7.05;5.43;;;;;;;26.74;53.61;95628.66;4954059;28;20235;-88
2022/08/25 09:01:57;;;;;;;5.65;5.20;;;;;;;26.65;53.54;95627.66;4954032;28;20838;-87
2022/08/25 09:04:35;;;;;;;5.20;4.80;;;;;;;26.81;54.35;95631.75;4954310;28;20201;-88
2022/08/25 09:07:10;;;;;;;6.32;5.72;;;;;;;26.91;53.44;95623.75;4955015;29;20208;-87
2022/08/25 09:09:42;;;;;;;5.80;5.15;;;;;;;26.84;53.43;95620.63;4952491;28;20252;-87
2022/08/25 09:12:17;;;;;;;4.75;4.25;;;;;;;26.97;52.09;95617.34;4953664;28;20375;-88
2022/08/25 09:15:02;;;;;;;6.05;5.55;;;;;;;27.00;52.83;95622.09;4954290;29;20209;-87
2022/08/25 09:18:12;;;;;;;5.55;5.07;;;;;;;27.15;52.68;95615.84;4954019;29;20232;-87
2022/08/25 09:20:59;;;;;;;11.45;10.45;;;;;;;27.40;51.78;95631.44;4953352;28;20236;-86
2022/08/25 09:23:40;;;;;;;7.30;6.60;;;;;;;27.41;51.81;95625.09;4954736;28;20361;-87
2022/08/25 09:26:25;;;;;;;5.68;5.28;;;;;;;27.64;51.56;95634.13;4954312;28;20239;-87
2022/08/25 09:29:00;;;;;;;7.97;5.80;;;;;;;27.91;50.79;95630.06;4953420;28;20239;-87
2022/08/25 09:31:32;;;;;;;6.30;5.63;;;;;;;28.11;50.42;95632.44;4953498;28;20224;-88
2022/08/25 09:34:04;;;;;;;7.13;4.90;;;;;;;28.19;51.23;95623.88;4954072;28;20217;-88
2022/08/25 09:36:32;;;;;;;6.05;5.35;;;;;;;28.11;50.91;95625.28;4953666;28;20205;-87
2022/08/25 09:39:04;;;;;;;5.53;5.03;;;;;;;28.21;50.64;95618.31;4953009;28;20240;-89
2022/08/25 09:41:45;;;;;;;5.30;4.90;;;;;;;28.35;49.24;95619.94;4953126;28;20257;-87
2022/08/25 09:44:28;;;;;;;7.15;5.28;;;;;;;28.27;49.09;95620.63;4953583;28;20204;-86
2022/08/25 09:47:21;;;;;;;6.30;5.60;;;;;;;28.32;49.41;95620.53;4953193;28;20201;-87
2022/08/25 09:50:01;;;;;;;5.85;5.35;;;;;;;28.39;48.92;95625.47;4955065;28;20228;-88
2022/08/25 09:52:36;;;;;;;6.00;5.57;;;;;;;28.34;49.94;95610.44;4956146;28;20220;-88
2022/08/25 09:55:38;;;;;;;5.03;4.63;;;;;;;28.56;49.56;95609.84;4952842;28;20208;-88
2022/08/25 09:58:17;;;;;;;5.80;5.20;;;;;;;28.63;48.75;95601.53;4912311;29;20686;-87
2022/08/25 10:00:43;;;;;;;5.78;5.15;;;;;;;28.40;49.36;95606.63;4902329;29;20324;-88
2022/08/25 10:03:14;;;;;;;10.07;9.25;;;;;;;28.65;49.18;95596.72;4933333;28;20320;-89
2022/08/25 10:06:04;;;;;;;9.90;6.43;;;;;;;28.84;48.35;95592.19;4952298;28;20223;-87
2022/08/25 10:08:42;;;;;;;5.82;5.00;;;;;;;28.57;48.22;95592.88;4952252;28;20221;-87
2022/08/25 10:11:13;;;;;;;6.90;4.82;;;;;;;28.34;49.22;95601.69;4952081;28;20204;-87
2022/08/25 10:13:45;;;;;;;5.68;5.15;;;;;;;28.39;49.50;95597.13;4952700;29;20219;-88
2022/08/25 10:16:23;;;;;;;5.53;4.65;;;;;;;28.75;49.30;95593.88;4952067;29;20309;-88
2022/08/25 10:19:11;;;;;;;5.13;4.72;;;;;;;29.03;48.22;95584.94;4951834;28;20317;-88
2022/08/25 10:21:45;;;;;;;5.22;4.75;;;;;;;28.72;48.04;95584.66;4951737;28;20233;-87
2022/08/25 10:24:13;;;;;;;4.65;4.25;;;;;;;28.71;49.50;95582.28;4952445;28;20204;-86
2022/08/25 10:27:07;;;;;;;5.18;4.68;;;;;;;29.02;49.07;95580.72;4952405;28;20271;-87
2022/08/25 10:30:07;;;;;;;5.60;5.03;;;;;;;28.96;47.77;95570.50;4951363;28;20242;-87
2022/08/25 10:32:51;;;;;;;5.30;4.88;;;;;;;28.95;48.94;95577.66;4955170;28;20317;-87
2022/08/25 10:35:32;;;;;;;4.93;4.45;;;;;;;28.97;47.51;95578.16;4953389;28;20283;-87
2022/08/25 10:38:25;;;;;;;5.38;4.88;;;;;;;29.11;47.80;95568.34;4952222;28;20235;-87
2022/08/25 10:40:59;;;;;;;5.05;4.45;;;;;;;29.16;48.58;95570.91;4951795;28;20252;-87
2022/08/25 10:43:42;;;;;;;8.13;6.25;;;;;;;28.95;48.92;95569.69;4952767;28;20225;-88
2022/08/25 10:46:15;;;;;;;7.68;6.07;;;;;;;28.61;48.47;95561.28;4952629;28;20210;-87
2022/08/25 10:49:04;;;;;;;5.22;4.72;;;;;;;28.59;48.42;95550.97;4951903;28;20228;-88
2022/08/25 10:51:55;;;;;;;5.18;4.68;;;;;;;28.66;48.64;95555.91;4952179;28;20743;-88
2022/08/25 10:54:43;;;;;;;4.50;4.10;;;;;;;28.50;47.25;95563.28;4953175;28;20208;-87
2022/08/25 10:57:21;;;;;;;5.72;4.75;;;;;;;28.35;47.69;95563.53;4952880;28;20297;-89
2022/08/25 11:00:00;;;;;;;4.97;4.53;;;;;;;28.26;47.96;95552.84;4953003;28;20232;-90
2022/08/25 11:02:56;;;;;;;4.85;4.45;;;;;;;28.47;48.66;95551.44;4955151;28;20238;-87
2022/08/25 11:05:28;;;;;;;5.05;4.65;;;;;;;28.64;48.47;95547.44;4933564;29;20688;-87
2022/08/25 11:08:03;;;;;;;5.07;4.57;;;;;;;28.57;48.40;95547.03;4933737;29;20613;-87
2022/08/25 11:10:46;;;;;;;5.43;4.85;;;;;;;28.69;47.66;95545.47;4937890;28;20249;-86
2022/08/25 11:13:20;;;;;;;4.75;4.40;;;;;;;28.56;47.83;95538.28;4933068;29;20721;-87
2022/08/25 11:16:01;;;;;;;5.00;4.55;;;;;;;28.55;47.95;95544.66;4934469;29;20233;-86
2022/08/25 11:18:37;;;;;;;5.35;4.70;;;;;;;28.69;47.81;95548.13;4951170;28;20200;-87
2022/08/25 11:21:09;;;;;;;5.10;4.30;;;;;;;28.77;45.87;95539.50;4951672;28;20208;-86
2022/08/25 11:23:52;;;;;;;7.82;4.88;;;;;;;28.74;47.02;95536.66;4951901;28;20201;-87
2022/08/25 11:26:33;;;;;;;5.15;4.75;;;;;;;28.92;47.59;95529.72;4951785;28;20205;-86
2022/08/25 11:29:15;;;;;;;6.68;4.90;;;;;;;29.02;46.46;95534.88;4946149;28;20243;-87
2022/08/25 11:31:45;;;;;;;5.75;5.07;;;;;;;29.07;46.86;95532.09;4960214;28;20295;-88
2022/08/25 11:34:27;;;;;;;7.82;7.22;;;;;;;29.02;46.26;95530.34;4955357;28;20748;-87
2022/08/25 11:36:59;;;;;;;9.85;9.05;;;;;;;29.10;46.80;95521.69;4955170;28;20216;-88
2022/08/25 11:39:45;;;;;;;7.18;5.25;;;;;;;28.97;44.71;95522.47;4946637;28;20238;-86
2022/08/25 11:42:28;;;;;;;5.53;4.85;;;;;;;28.84;46.92;95518.75;4954856;28;20225;-88
2022/08/25 11:45:15;;;;;;;5.32;4.93;;;;;;;28.86;47.08;95505.97;4954757;28;20372;-89
2022/08/25 11:48:03;;;;;;;5.53;5.03;;;;;;;28.71;47.21;95508.09;4955140;28;20208;-88
2022/08/25 11:50:55;;;;;;;6.95;4.93;;;;;;;28.70;47.19;95515.25;4954085;28;20611;-87
2022/08/25 11:53:27;;;;;;;5.72;5.10;;;;;;;28.80;47.60;95515.09;4955273;28;20332;-88
2022/08/25 11:56:03;;;;;;;6.80;5.57;;;;;;;29.06;47.49;95515.41;4954743;28;20323;-87
2022/08/25 11:58:50;;;;;;;8.02;5.88;;;;;;;29.33;46.62;95513.81;4954024;28;20216;-89
2022/08/25 12:02:09;;;;;;;6.32;5.28;;;;;;;29.15;46.67;95503.03;4953910;28;20197;-88
2022/08/25 12:04:39;;;;;;;6.85;5.85;;;;;;;29.11;47.00;95511.88;4954434;28;20672;-88
2022/08/25 12:07:21;;;;;;;5.88;5.38;;;;;;;28.99;46.95;95511.59;4954337;29;20244;-89
2022/08/25 12:10:12;;;;;;;8.18;5.57;;;;;;;29.06;46.85;95512.75;4953993;28;20236;-88